Aviation Digital Data Service (ADDS)

Output produced by TAFs form (1745 UTC 31 August 2015)
found at http://aviationweather.gov/adds/tafs/
 
KMAF 311720Z 3118/0118 17010G17KT P6SM FEW070 
     FM010100 17010KT P6SM SKC